Cedarville, Arkansas
Current Conditions -  °F | °C
As of 5:53 PM on Saturday 25 Oct 2014 (Local Time) from KFSM Reporting Station
Clear Clear  
Wind Chill: 84°   Ceiling: Unl
Heat Index: 85°   Visibility: 10mi
Dew Point: 62°   Wind: 3mph
Humidity: 47%   Direction: 210°SSW
Pressure: 30.02"   Gusts: NA
Location:  35.57°N, 94.37°W
Report Text: KFSM 252253Z 21003KT 10SM CLR 29/17 A3002 RMK AO2 SLP160 T02890167
Loading
Personal Weather Stations






























Interactive Weather Map
Tropical Storm Tracking
New forecast layout! Learn more

10-Day Weather Forecast

Advertisements
Track Severe Weather on mobile